createdAt,value
2022-09-09T00:00:49.018Z,0.90
2022-09-09T00:03:20.930Z,0.80
2022-09-09T00:06:10.105Z,0.90
2022-09-09T00:09:11.170Z,0.90
2022-09-09T00:11:43.712Z,0.90
2022-09-09T00:14:42.768Z,1.00
2022-09-09T00:17:43.373Z,1.03
2022-09-09T00:20:29.132Z,1.30
2022-09-09T00:23:15.906Z,0.80
2022-09-09T00:25:53.028Z,0.80
2022-09-09T00:28:23.752Z,1.20
2022-09-09T00:30:50.607Z,0.80
2022-09-09T00:33:23.832Z,0.90
2022-09-09T00:35:58.053Z,0.97
2022-09-09T00:38:33.556Z,0.77
2022-09-09T00:41:22.367Z,1.17
2022-09-09T00:43:59.536Z,0.93
2022-09-09T00:46:49.976Z,1.30
2022-09-09T00:50:01.132Z,1.03
2022-09-09T00:53:02.869Z,1.50
2022-09-09T00:55:57.547Z,0.80
2022-09-09T00:58:24.308Z,1.10
2022-09-09T01:00:58.965Z,1.20
2022-09-09T01:04:00.555Z,1.00
2022-09-09T01:06:37.905Z,1.30
2022-09-09T01:09:38.751Z,1.43
2022-09-09T01:12:26.073Z,1.37
2022-09-09T01:15:01.961Z,1.20
2022-09-09T01:17:35.731Z,1.40
2022-09-09T01:20:07.763Z,1.37
2022-09-09T01:22:37.442Z,1.40
2022-09-09T01:25:21.969Z,1.40
2022-09-09T01:27:52.281Z,1.57
2022-09-09T01:30:20.135Z,1.30
2022-09-09T01:32:54.643Z,1.40
2022-09-09T01:35:51.879Z,1.40
2022-09-09T01:38:19.321Z,1.73
2022-09-09T01:40:46.257Z,1.40
2022-09-09T01:43:13.604Z,2.07
2022-09-09T01:45:43.666Z,1.20
2022-09-09T01:48:10.528Z,1.07
2022-09-09T01:50:37.298Z,1.00
2022-09-09T01:53:04.657Z,1.10
2022-09-09T01:55:43.271Z,1.37
2022-09-09T01:58:09.939Z,1.23
2022-09-09T02:00:41.731Z,1.20
2022-09-09T02:03:28.548Z,1.20
2022-09-09T02:06:18.936Z,1.47
2022-09-09T02:08:52.036Z,1.43
2022-09-09T02:11:20.316Z,1.07
2022-09-09T02:13:50.083Z,1.37
2022-09-09T02:16:29.014Z,1.00
2022-09-09T02:19:31.757Z,1.23
2022-09-09T02:22:00.958Z,1.00
2022-09-09T02:24:31.707Z,1.17
2022-09-09T02:27:01.528Z,1.00
2022-09-09T02:29:54.893Z,1.00
2022-09-09T02:32:24.805Z,1.10
2022-09-09T02:35:29.424Z,1.47
2022-09-09T02:38:00.743Z,1.20
2022-09-09T02:40:27.428Z,1.40
2022-09-09T02:42:56.137Z,1.03
2022-09-09T02:45:26.959Z,1.30
2022-09-09T02:48:02.841Z,1.23
2022-09-09T02:51:11.474Z,1.30
2022-09-09T02:54:00.769Z,1.60
2022-09-09T02:56:33.857Z,1.40
2022-09-09T02:59:00.677Z,1.40
2022-09-09T03:01:27.467Z,1.57
2022-09-09T03:03:56.034Z,1.10
2022-09-09T03:06:22.820Z,1.20
2022-09-09T03:08:50.923Z,1.10
2022-09-09T03:11:18.302Z,1.30
2022-09-09T03:13:45.035Z,1.57
2022-09-09T03:16:11.822Z,1.30
2022-09-09T03:18:38.616Z,1.60
2022-09-09T03:21:05.682Z,1.53
2022-09-09T03:23:32.425Z,1.57
2022-09-09T03:25:59.681Z,1.13
2022-09-09T03:28:32.039Z,1.40
2022-09-09T03:31:03.524Z,1.30
2022-09-09T03:33:30.928Z,1.10
2022-09-09T03:35:58.027Z,1.40
2022-09-09T03:38:25.651Z,1.30
2022-09-09T03:40:56.607Z,1.47
2022-09-09T03:43:24.402Z,1.30
2022-09-09T03:45:51.320Z,1.20
2022-09-09T03:48:19.641Z,1.40
2022-09-09T03:50:52.032Z,1.07
2022-09-09T03:53:21.231Z,1.23
2022-09-09T03:55:50.927Z,1.27
2022-09-09T03:58:19.825Z,1.20
2022-09-09T04:00:57.817Z,1.50
2022-09-09T04:03:28.067Z,1.17
2022-09-09T04:05:57.485Z,1.20
2022-09-09T04:08:26.343Z,1.03
2022-09-09T04:10:53.966Z,1.27
2022-09-09T04:13:20.778Z,1.17
2022-09-09T04:15:56.366Z,1.30
2022-09-09T04:18:24.568Z,1.20
2022-09-09T04:20:52.727Z,1.30
2022-09-09T04:23:21.519Z,1.20
2022-09-09T04:25:53.408Z,1.20
2022-09-09T04:28:23.232Z,1.47
2022-09-09T04:30:50.681Z,1.40
2022-09-09T04:33:18.367Z,1.20
2022-09-09T04:35:46.857Z,1.70
2022-09-09T04:38:13.631Z,1.97
2022-09-09T04:40:43.863Z,1.77
2022-09-09T04:43:14.339Z,1.70
2022-09-09T04:45:42.314Z,1.37
2022-09-09T04:48:10.682Z,1.23
2022-09-09T04:50:37.559Z,2.00
2022-09-09T04:53:05.930Z,1.60
2022-09-09T04:55:34.175Z,1.50
2022-09-09T04:58:06.190Z,2.00
2022-09-09T05:00:34.766Z,1.40
2022-09-09T05:03:05.367Z,1.83
2022-09-09T05:05:33.119Z,2.13
2022-09-09T05:08:04.238Z,2.17
2022-09-09T05:10:31.381Z,2.20
2022-09-09T05:12:58.146Z,1.90
2022-09-09T05:15:25.048Z,1.87
2022-09-09T05:17:53.515Z,1.90
2022-09-09T05:20:20.587Z,1.90
2022-09-09T05:22:47.332Z,2.10
2022-09-09T05:25:14.247Z,2.20
2022-09-09T05:27:40.964Z,2.17
2022-09-09T05:30:09.045Z,2.17
2022-09-09T05:32:35.846Z,2.07
2022-09-09T05:35:02.607Z,1.93
2022-09-09T05:37:31.201Z,1.80
2022-09-09T05:39:58.984Z,2.30
2022-09-09T05:42:25.797Z,1.83
2022-09-09T05:44:55.262Z,1.90
2022-09-09T05:47:22.091Z,1.63
2022-09-09T05:49:49.635Z,1.30
2022-09-09T05:52:16.335Z,1.67
2022-09-09T05:54:44.270Z,1.70
2022-09-09T05:57:11.050Z,1.60
2022-09-09T05:59:38.276Z,1.53
2022-09-09T06:02:05.326Z,1.40
2022-09-09T06:04:32.309Z,1.60
2022-09-09T06:06:59.101Z,1.30
2022-09-09T06:09:26.304Z,1.20
2022-09-09T06:11:53.260Z,1.47
2022-09-09T06:14:20.072Z,1.65
2022-09-09T06:16:47.110Z,1.90
2022-09-09T06:19:13.987Z,1.10
2022-09-09T06:21:41.242Z,1.73
2022-09-09T06:24:11.962Z,1.38
2022-09-09T06:26:43.006Z,1.33
2022-09-09T06:29:10.567Z,1.52
2022-09-09T06:31:38.325Z,1.50
2022-09-09T06:34:09.560Z,1.30
2022-09-09T06:36:38.429Z,1.15
2022-09-09T06:39:08.794Z,1.40
2022-09-09T06:41:39.295Z,1.23
2022-09-09T06:44:06.406Z,1.30
2022-09-09T06:46:34.477Z,1.20
2022-09-09T06:49:01.406Z,1.10
2022-09-09T06:51:34.717Z,1.00
2022-09-09T06:54:03.240Z,1.20
2022-09-09T06:56:38.734Z,1.30
2022-09-09T06:59:06.832Z,1.48
2022-09-09T07:01:50.309Z,1.73
2022-09-09T07:04:19.304Z,1.27
2022-09-09T07:06:47.478Z,1.10
2022-09-09T07:09:17.205Z,1.10
2022-09-09T07:11:47.328Z,1.60
2022-09-09T07:14:15.268Z,1.52
2022-09-09T07:16:46.562Z,1.33
2022-09-09T07:19:15.323Z,1.30
2022-09-09T07:21:42.752Z,1.70
2022-09-09T07:24:11.724Z,1.33
2022-09-09T07:26:40.103Z,1.30
2022-09-09T07:29:07.594Z,1.10
2022-09-09T07:31:37.625Z,1.50
2022-09-09T07:34:05.492Z,1.67
2022-09-09T07:36:34.946Z,1.70
2022-09-09T07:39:10.169Z,2.13
2022-09-09T07:41:48.108Z,1.45
2022-09-09T07:44:17.483Z,1.53
2022-09-09T07:46:46.278Z,1.60
2022-09-09T07:49:13.824Z,1.70
2022-09-09T07:51:44.062Z,1.30
2022-09-09T07:54:13.406Z,1.47
2022-09-09T07:56:41.653Z,1.15
2022-09-09T07:59:09.677Z,1.53
2022-09-09T08:01:46.212Z,1.60
2022-09-09T08:04:16.590Z,1.50
2022-09-09T08:06:53.781Z,1.80
2022-09-09T08:09:22.492Z,1.40
2022-09-09T08:11:49.357Z,1.50
2022-09-09T08:14:16.357Z,1.65
2022-09-09T08:16:45.983Z,1.40
2022-09-09T08:19:12.905Z,1.52
2022-09-09T08:21:41.336Z,1.30
2022-09-09T08:24:11.451Z,1.17
2022-09-09T08:26:43.903Z,1.33
2022-09-09T08:29:12.707Z,1.52
2022-09-09T08:31:55.742Z,1.40
2022-09-09T08:34:23.242Z,1.55
2022-09-09T08:36:51.769Z,1.60
2022-09-09T08:39:21.275Z,1.10
2022-09-09T08:42:26.433Z,1.50
2022-09-09T08:45:13.152Z,1.27
2022-09-09T08:48:10.481Z,1.15
2022-09-09T08:50:42.407Z,1.50
2022-09-09T08:53:09.171Z,1.50
2022-09-09T08:55:56.553Z,1.35
2022-09-09T08:58:30.528Z,1.52
2022-09-09T09:01:09.720Z,1.52
2022-09-09T09:03:51.763Z,1.30
2022-09-09T09:06:37.389Z,1.50
2022-09-09T09:09:09.722Z,0.98
2022-09-09T09:11:45.363Z,1.60
2022-09-09T09:14:24.678Z,1.10
2022-09-09T09:16:51.402Z,1.20
2022-09-09T09:19:19.171Z,1.35
2022-09-09T09:21:52.436Z,1.13
2022-09-09T09:24:28.519Z,1.20
2022-09-09T09:26:55.762Z,1.17
2022-09-09T09:29:26.448Z,1.08
2022-09-09T09:31:56.571Z,1.10
2022-09-09T09:34:25.374Z,1.00
2022-09-09T09:36:58.269Z,1.48
2022-09-09T09:42:20.385Z,1.25
2022-09-09T09:44:50.563Z,1.30
2022-09-09T09:47:21.411Z,1.67
2022-09-09T09:50:03.594Z,1.10
2022-09-09T09:52:32.259Z,1.65
2022-09-09T09:55:08.303Z,1.20
2022-09-09T09:57:36.645Z,1.27
2022-09-09T10:00:20.207Z,1.10
2022-09-09T10:02:47.991Z,1.15
2022-09-09T10:05:25.777Z,0.90
2022-09-09T10:08:15.049Z,1.15
2022-09-09T10:11:18.987Z,1.00
2022-09-09T10:13:45.737Z,1.55
2022-09-09T10:16:37.495Z,1.00
2022-09-09T10:19:28.619Z,1.02
2022-09-09T10:22:03.712Z,1.30
2022-09-09T10:24:43.169Z,1.25
2022-09-09T10:27:17.704Z,1.52
2022-09-09T10:30:09.944Z,1.33
2022-09-09T10:33:06.769Z,1.10
2022-09-09T10:35:59.252Z,1.20
2022-09-09T10:39:00.335Z,1.45
2022-09-09T10:41:45.333Z,1.42
2022-09-09T10:44:20.639Z,1.48
2022-09-09T10:47:02.530Z,1.60
2022-09-09T10:49:44.477Z,1.48
2022-09-09T10:52:29.251Z,1.30
2022-09-09T10:55:19.549Z,1.67
2022-09-09T10:57:53.204Z,1.52
2022-09-09T11:00:21.826Z,1.58
2022-09-09T11:02:59.814Z,1.30
2022-09-09T11:05:50.601Z,1.40
2022-09-09T11:11:05.967Z,1.58
2022-09-09T11:13:57.304Z,1.48
2022-09-09T11:16:43.179Z,1.20
2022-09-09T11:19:16.940Z,1.10
2022-09-09T11:21:48.068Z,1.30
2022-09-09T11:24:34.253Z,1.35
2022-09-09T11:27:14.256Z,1.50
2022-09-09T11:29:45.269Z,1.20
2022-09-09T11:32:41.226Z,1.20
2022-09-09T11:35:41.854Z,1.60
2022-09-09T11:38:22.261Z,1.38
2022-09-09T11:40:57.320Z,1.67
2022-09-09T11:43:29.202Z,1.30
2022-09-09T11:46:01.112Z,1.20
2022-09-09T11:48:46.577Z,1.15
2022-09-09T11:51:36.358Z,1.25
2022-09-09T11:54:32.568Z,0.95
2022-09-09T11:57:00.589Z,1.27
2022-09-09T11:59:27.399Z,1.30
2022-09-09T12:02:18.331Z,1.10
2022-09-09T12:05:10.096Z,1.15
2022-09-09T12:07:43.760Z,1.00
2022-09-09T12:10:33.629Z,1.02
2022-09-09T12:13:20.486Z,1.00
2022-09-09T12:15:55.468Z,1.00
2022-09-09T12:18:37.713Z,1.00
2022-09-09T12:21:12.432Z,1.35
2022-09-09T12:24:07.821Z,1.00
2022-09-09T12:26:54.900Z,0.73
2022-09-09T12:29:53.960Z,1.02
2022-09-09T12:32:26.561Z,1.02
2022-09-09T12:35:03.174Z,1.00
2022-09-09T12:37:42.370Z,0.90
2022-09-09T12:40:33.435Z,1.15
2022-09-09T12:43:02.270Z,1.10
2022-09-09T12:45:34.029Z,0.90
2022-09-09T12:48:16.712Z,0.90
2022-09-09T12:50:50.151Z,0.82
2022-09-09T12:53:30.964Z,0.75
2022-09-09T12:56:03.525Z,0.80
2022-09-09T12:58:36.170Z,1.10
2022-09-09T13:01:07.880Z,1.23
2022-09-09T13:03:44.068Z,1.00
2022-09-09T13:06:23.641Z,0.90
2022-09-09T13:08:58.340Z,1.15
2022-09-09T13:11:39.691Z,1.10
2022-09-09T13:14:07.695Z,1.00
2022-09-09T13:16:41.916Z,1.38
2022-09-09T13:19:17.485Z,0.65
2022-09-09T13:21:44.626Z,1.20
2022-09-09T13:24:33.785Z,0.82
2022-09-09T13:27:21.376Z,1.20
2022-09-09T13:29:56.765Z,1.00
2022-09-09T13:32:25.398Z,1.08
2022-09-09T13:34:58.089Z,0.80
2022-09-09T13:37:39.572Z,1.48
2022-09-09T13:40:08.278Z,1.08
2022-09-09T13:42:41.270Z,1.17
2022-09-09T13:45:25.673Z,0.65
2022-09-09T13:47:56.477Z,0.65
2022-09-09T13:50:27.789Z,0.70
2022-09-09T13:52:57.102Z,0.70
2022-09-09T13:55:25.874Z,0.70
2022-09-09T13:57:53.780Z,0.70
2022-09-09T14:00:21.792Z,0.60
2022-09-09T14:02:49.867Z,0.95
2022-09-09T14:05:17.372Z,0.77
2022-09-09T14:07:45.234Z,0.52
2022-09-09T14:10:13.308Z,0.82
2022-09-09T14:12:40.349Z,1.10
2022-09-09T14:15:10.714Z,0.60
2022-09-09T14:17:37.608Z,0.77
2022-09-09T14:20:09.590Z,0.77
2022-09-09T14:22:37.780Z,1.00
2022-09-09T14:25:05.279Z,0.90
2022-09-09T14:27:32.512Z,0.85
2022-09-09T14:30:00.985Z,0.90
2022-09-09T14:32:28.286Z,0.77
2022-09-09T14:34:55.087Z,0.60
2022-09-09T14:37:22.011Z,0.70
2022-09-09T14:39:51.478Z,0.57
2022-09-09T14:42:19.185Z,0.73
2022-09-09T14:44:45.933Z,0.95
2022-09-09T14:47:12.661Z,0.90
2022-09-09T14:49:41.499Z,0.75
2022-09-09T14:52:10.844Z,0.93
2022-09-09T14:54:37.828Z,0.90
2022-09-09T14:57:04.761Z,1.02
2022-09-09T14:59:31.561Z,0.88
2022-09-09T15:01:58.358Z,0.90
2022-09-09T15:04:25.377Z,0.77
2022-09-09T15:06:54.332Z,0.98
2022-09-09T15:09:21.145Z,0.95
2022-09-09T15:11:48.016Z,0.75
2022-09-09T15:14:14.736Z,1.02
2022-09-09T15:16:41.730Z,0.60
2022-09-09T15:19:08.489Z,0.80
2022-09-09T15:21:37.740Z,0.90
2022-09-09T15:24:05.552Z,0.60
2022-09-09T15:26:32.843Z,1.10
2022-09-09T15:29:00.315Z,0.75
2022-09-09T15:31:29.759Z,1.02
2022-09-09T15:34:01.881Z,0.93
2022-09-09T15:36:29.622Z,0.88
2022-09-09T15:38:56.966Z,0.80
2022-09-09T15:41:24.691Z,1.13
2022-09-09T15:43:53.815Z,1.10
2022-09-09T15:46:28.038Z,0.90
2022-09-09T15:48:56.660Z,0.90
2022-09-09T15:51:41.694Z,0.98
2022-09-09T15:54:11.301Z,1.25
2022-09-09T15:56:38.075Z,0.85
2022-09-09T15:59:05.045Z,1.02
2022-09-09T16:01:32.748Z,1.15
2022-09-09T16:04:01.220Z,1.05
2022-09-09T16:06:29.893Z,1.00
2022-09-09T16:08:59.217Z,1.17
2022-09-09T16:11:33.078Z,1.02
2022-09-09T16:14:01.249Z,1.25
2022-09-09T16:16:29.792Z,1.40
2022-09-09T16:19:02.235Z,1.08
2022-09-09T16:21:32.966Z,1.63
2022-09-09T16:24:01.844Z,1.58
2022-09-09T16:26:31.769Z,2.40
2022-09-09T16:28:59.889Z,2.10
2022-09-09T16:31:28.264Z,1.90
2022-09-09T16:33:55.299Z,2.15
2022-09-09T16:36:26.159Z,1.33
2022-09-09T16:38:58.482Z,1.05
2022-09-09T16:41:26.984Z,1.20
2022-09-09T16:43:56.431Z,1.10
2022-09-09T16:46:25.279Z,0.98
2022-09-09T16:48:52.841Z,0.93
2022-09-09T16:51:44.844Z,1.00
2022-09-09T16:54:14.886Z,0.93
2022-09-09T16:56:44.488Z,1.13
2022-09-09T16:59:16.467Z,0.80
2022-09-09T17:01:45.267Z,1.20
2022-09-09T17:04:21.337Z,0.85
2022-09-09T17:06:53.232Z,1.15
2022-09-09T17:09:21.349Z,1.00
2022-09-09T17:11:51.504Z,1.00
2022-09-09T17:14:20.230Z,1.23
2022-09-09T17:16:47.785Z,0.97
2022-09-09T17:19:15.615Z,1.20
2022-09-09T17:22:05.920Z,0.90
2022-09-09T17:24:30.315Z,0.90
2022-09-09T17:26:58.319Z,1.10
2022-09-09T17:29:25.987Z,2.63
2022-09-09T17:31:53.258Z,2.03
2022-09-09T17:34:20.031Z,2.00
2022-09-09T17:36:46.978Z,1.40
2022-09-09T17:39:13.878Z,1.60
2022-09-09T17:41:41.827Z,1.50
2022-09-09T17:44:10.802Z,1.63
2022-09-09T17:46:41.302Z,1.20
2022-09-09T17:49:15.574Z,1.17
2022-09-09T17:51:43.999Z,0.70
2022-09-09T17:54:17.340Z,1.33
2022-09-09T17:56:45.372Z,0.90
2022-09-09T17:59:13.818Z,0.80
2022-09-09T18:01:44.890Z,1.00
2022-09-09T18:04:14.235Z,1.27
2022-09-09T18:06:46.503Z,1.23
2022-09-09T18:09:16.504Z,1.03
2022-09-09T18:11:46.344Z,0.90
2022-09-09T18:14:17.826Z,0.90
2022-09-09T18:16:45.511Z,1.10
2022-09-09T18:19:14.284Z,1.10
2022-09-09T18:21:42.994Z,1.20
2022-09-09T18:24:11.656Z,1.10
2022-09-09T18:26:40.145Z,1.00
2022-09-09T18:29:10.289Z,1.00
2022-09-09T18:31:37.863Z,1.33
2022-09-09T18:34:07.397Z,1.10
2022-09-09T18:36:37.799Z,1.40
2022-09-09T18:39:06.297Z,1.47
2022-09-09T18:41:45.383Z,0.80
2022-09-09T18:44:17.429Z,1.20
2022-09-09T18:46:45.313Z,1.20
2022-09-09T18:49:12.622Z,1.27
2022-09-09T18:51:41.697Z,0.97
2022-09-09T18:54:19.595Z,0.90
2022-09-09T18:56:47.315Z,1.20
2022-09-09T18:59:20.517Z,1.17
2022-09-09T19:01:50.466Z,1.00
2022-09-09T19:04:18.010Z,0.80
2022-09-09T19:06:47.405Z,0.90
2022-09-09T19:09:17.344Z,1.50
2022-09-09T19:11:45.389Z,1.00
2022-09-09T19:14:18.094Z,0.90
2022-09-09T19:16:45.909Z,1.00
2022-09-09T19:19:16.241Z,0.93
2022-09-09T19:21:44.456Z,1.20
2022-09-09T19:24:22.729Z,1.00
2022-09-09T19:26:52.311Z,0.80
2022-09-09T19:29:24.672Z,0.90
2022-09-09T19:32:36.412Z,0.93
2022-09-09T19:34:40.378Z,1.30
2022-09-09T19:37:08.468Z,0.93
2022-09-09T19:39:35.360Z,0.90
2022-09-09T19:42:02.215Z,1.10
2022-09-09T19:44:29.345Z,0.93
2022-09-09T19:46:56.112Z,1.10
2022-09-09T19:49:22.948Z,1.30
2022-09-09T19:51:49.683Z,1.20
2022-09-09T19:54:17.599Z,1.10
2022-09-09T19:56:44.617Z,1.00
2022-09-09T19:59:12.861Z,0.87
2022-09-09T20:01:44.853Z,1.17
2022-09-09T20:04:12.950Z,1.00
2022-09-09T20:06:41.970Z,1.07
2022-09-09T20:09:14.526Z,1.10
2022-09-09T20:11:41.987Z,1.33
2022-09-09T20:14:09.664Z,1.30
2022-09-09T20:16:36.742Z,1.50
2022-09-09T20:19:06.453Z,1.40
2022-09-09T20:21:36.507Z,1.27
2022-09-09T20:24:07.488Z,1.50
2022-09-09T20:26:38.616Z,1.77
2022-09-09T20:29:09.884Z,1.50
2022-09-09T20:31:40.677Z,1.57
2022-09-09T20:34:10.607Z,2.20
2022-09-09T20:36:38.799Z,1.70
2022-09-09T20:39:15.114Z,1.30
2022-09-09T20:41:44.471Z,1.90
2022-09-09T20:44:17.065Z,1.50
2022-09-09T20:46:49.231Z,2.60
2022-09-09T20:49:18.690Z,1.60
2022-09-09T20:51:47.000Z,1.27
2022-09-09T20:54:16.330Z,1.53
2022-09-09T20:56:45.116Z,1.53
2022-09-09T20:59:14.767Z,1.10
2022-09-09T21:01:42.240Z,1.30
2022-09-09T21:04:09.788Z,1.67
2022-09-09T21:06:37.113Z,1.20
2022-09-09T21:09:04.586Z,1.20
2022-09-09T21:11:31.665Z,1.13
2022-09-09T21:13:59.604Z,1.20
2022-09-09T21:16:26.439Z,1.27
2022-09-09T21:18:53.545Z,1.43
2022-09-09T21:21:21.116Z,1.30
2022-09-09T21:23:49.125Z,1.30
2022-09-09T21:26:18.142Z,1.20
2022-09-09T21:28:45.261Z,1.37
2022-09-09T21:31:16.956Z,1.47
2022-09-09T21:33:44.145Z,1.23
2022-09-09T21:36:12.542Z,1.63
2022-09-09T21:38:40.696Z,1.20
2022-09-09T21:41:13.022Z,1.40
2022-09-09T21:43:42.001Z,1.37
2022-09-09T21:46:16.542Z,1.97
2022-09-09T21:48:43.986Z,1.50
2022-09-09T21:51:14.482Z,1.30
2022-09-09T21:53:41.565Z,1.73
2022-09-09T21:56:12.205Z,1.50
2022-09-09T21:58:40.840Z,0.97
2022-09-09T22:01:16.885Z,1.30
2022-09-09T22:03:44.517Z,1.37
2022-09-09T22:06:14.452Z,1.20
2022-09-09T22:08:41.282Z,1.53
2022-09-09T22:11:20.025Z,1.60
2022-09-09T22:13:46.783Z,1.20
2022-09-09T22:16:17.083Z,1.30
2022-09-09T22:18:44.550Z,1.27
2022-09-09T22:21:16.595Z,1.10
2022-09-09T22:23:43.500Z,1.43
2022-09-09T22:26:10.933Z,1.30
2022-09-09T22:28:38.839Z,0.80
2022-09-09T22:31:06.277Z,1.07
2022-09-09T22:33:33.590Z,1.23
2022-09-09T22:36:00.713Z,1.27
2022-09-09T22:38:27.450Z,1.40
2022-09-09T22:40:54.676Z,1.30
2022-09-09T22:43:22.727Z,1.20
2022-09-09T22:45:51.204Z,1.73
2022-09-09T22:48:18.001Z,0.97
2022-09-09T22:50:45.263Z,1.23
2022-09-09T22:53:18.649Z,1.17
2022-09-09T22:55:59.365Z,1.20
2022-09-09T22:58:31.622Z,1.10
2022-09-09T23:00:59.479Z,1.47
2022-09-09T23:03:30.991Z,1.40
2022-09-09T23:05:59.749Z,1.30
2022-09-09T23:08:32.599Z,1.50
2022-09-09T23:11:01.329Z,1.10
2022-09-09T23:13:31.910Z,1.60
2022-09-09T23:15:58.652Z,1.90
2022-09-09T23:18:26.762Z,1.50
2022-09-09T23:21:00.403Z,1.50
2022-09-09T23:23:28.422Z,1.70
2022-09-09T23:25:55.406Z,1.60
2022-09-09T23:28:22.235Z,1.40
2022-09-09T23:30:49.035Z,1.63
2022-09-09T23:33:15.848Z,1.60
2022-09-09T23:35:42.778Z,1.90
2022-09-09T23:38:10.463Z,1.63
2022-09-09T23:40:37.342Z,2.03
2022-09-09T23:43:06.336Z,2.03
2022-09-09T23:45:33.094Z,2.13
2022-09-09T23:47:59.892Z,1.63
2022-09-09T23:50:26.788Z,1.60
2022-09-09T23:52:53.502Z,1.80
2022-09-09T23:55:20.379Z,1.80
2022-09-09T23:57:47.090Z,1.60
